sensor_id;sensor_type;location;lat;lon;timestamp;P1;durP1;ratioP1;P2;durP2;ratioP2
48743;SDS011;34538;48.836;9.174;2022-09-24T00:00:55;9.23;;;6.75;;
48743;SDS011;34538;48.836;9.174;2022-09-24T00:03:22;10.93;;;6.65;;
48743;SDS011;34538;48.836;9.174;2022-09-24T00:05:49;11.13;;;6.22;;
48743;SDS011;34538;48.836;9.174;2022-09-24T00:08:17;9.80;;;6.22;;
48743;SDS011;34538;48.836;9.174;2022-09-24T00:10:44;10.00;;;6.85;;
48743;SDS011;34538;48.836;9.174;2022-09-24T00:13:12;8.45;;;6.30;;
48743;SDS011;34538;48.836;9.174;2022-09-24T00:15:41;8.98;;;6.50;;
48743;SDS011;34538;48.836;9.174;2022-09-24T00:18:08;9.32;;;6.32;;
48743;SDS011;34538;48.836;9.174;2022-09-24T00:20:36;10.48;;;7.05;;
48743;SDS011;34538;48.836;9.174;2022-09-24T00:23:03;11.82;;;6.65;;
48743;SDS011;34538;48.836;9.174;2022-09-24T00:25:29;9.98;;;6.03;;
48743;SDS011;34538;48.836;9.174;2022-09-24T00:28:14;11.27;;;6.47;;
48743;SDS011;34538;48.836;9.174;2022-09-24T00:30:40;9.02;;;6.40;;
48743;SDS011;34538;48.836;9.174;2022-09-24T00:33:07;9.45;;;6.00;;
48743;SDS011;34538;48.836;9.174;2022-09-24T00:35:34;11.60;;;6.00;;
48743;SDS011;34538;48.836;9.174;2022-09-24T00:38:02;11.75;;;6.13;;
48743;SDS011;34538;48.836;9.174;2022-09-24T00:40:33;10.68;;;6.88;;
48743;SDS011;34538;48.836;9.174;2022-09-24T00:43:01;10.93;;;6.60;;
48743;SDS011;34538;48.836;9.174;2022-09-24T00:45:44;8.93;;;6.13;;
48743;SDS011;34538;48.836;9.174;2022-09-24T00:48:10;10.30;;;6.78;;
48743;SDS011;34538;48.836;9.174;2022-09-24T00:50:36;12.65;;;7.28;;
48743;SDS011;34538;48.836;9.174;2022-09-24T00:55:34;9.25;;;6.85;;
48743;SDS011;34538;48.836;9.174;2022-09-24T00:58:04;10.40;;;7.22;;
48743;SDS011;34538;48.836;9.174;2022-09-24T01:00:32;11.20;;;7.22;;
48743;SDS011;34538;48.836;9.174;2022-09-24T01:03:03;13.05;;;8.07;;
48743;SDS011;34538;48.836;9.174;2022-09-24T01:05:35;11.93;;;8.02;;
48743;SDS011;34538;48.836;9.174;2022-09-24T01:08:02;15.98;;;7.95;;
48743;SDS011;34538;48.836;9.174;2022-09-24T01:13:36;12.30;;;9.32;;
48743;SDS011;34538;48.836;9.174;2022-09-24T01:16:32;13.20;;;8.25;;
48743;SDS011;34538;48.836;9.174;2022-09-24T01:25:01;12.93;;;8.18;;
48743;SDS011;34538;48.836;9.174;2022-09-24T01:30:29;16.13;;;9.77;;
48743;SDS011;34538;48.836;9.174;2022-09-24T01:32:59;15.25;;;9.15;;
48743;SDS011;34538;48.836;9.174;2022-09-24T01:35:33;13.75;;;10.07;;
48743;SDS011;34538;48.836;9.174;2022-09-24T01:38:13;13.88;;;9.63;;
48743;SDS011;34538;48.836;9.174;2022-09-24T01:40:49;14.13;;;9.15;;
48743;SDS011;34538;48.836;9.174;2022-09-24T01:43:22;15.88;;;9.18;;
48743;SDS011;34538;48.836;9.174;2022-09-24T01:45:51;11.98;;;8.57;;
48743;SDS011;34538;48.836;9.174;2022-09-24T01:48:17;16.35;;;10.23;;
48743;SDS011;34538;48.836;9.174;2022-09-24T01:50:50;17.33;;;9.93;;
48743;SDS011;34538;48.836;9.174;2022-09-24T01:53:35;14.13;;;9.63;;
48743;SDS011;34538;48.836;9.174;2022-09-24T01:56:12;22.55;;;9.52;;
48743;SDS011;34538;48.836;9.174;2022-09-24T01:58:45;16.40;;;9.95;;
48743;SDS011;34538;48.836;9.174;2022-09-24T02:01:22;15.13;;;10.07;;
48743;SDS011;34538;48.836;9.174;2022-09-24T02:03:56;14.68;;;9.38;;
48743;SDS011;34538;48.836;9.174;2022-09-24T02:06:32;15.48;;;10.25;;
48743;SDS011;34538;48.836;9.174;2022-09-24T02:09:01;15.15;;;10.95;;
48743;SDS011;34538;48.836;9.174;2022-09-24T02:11:27;15.68;;;10.88;;
48743;SDS011;34538;48.836;9.174;2022-09-24T02:14:02;16.60;;;10.55;;
48743;SDS011;34538;48.836;9.174;2022-09-24T02:16:38;15.48;;;10.82;;
48743;SDS011;34538;48.836;9.174;2022-09-24T02:19:10;17.92;;;11.77;;
48743;SDS011;34538;48.836;9.174;2022-09-24T02:21:40;17.15;;;11.82;;
48743;SDS011;34538;48.836;9.174;2022-09-24T02:24:16;17.58;;;11.20;;
48743;SDS011;34538;48.836;9.174;2022-09-24T02:26:44;17.95;;;11.35;;
48743;SDS011;34538;48.836;9.174;2022-09-24T02:29:11;16.10;;;10.68;;
48743;SDS011;34538;48.836;9.174;2022-09-24T02:31:38;18.02;;;11.25;;
48743;SDS011;34538;48.836;9.174;2022-09-24T02:34:07;16.65;;;11.35;;
48743;SDS011;34538;48.836;9.174;2022-09-24T02:36:45;17.42;;;12.00;;
48743;SDS011;34538;48.836;9.174;2022-09-24T02:39:15;16.05;;;11.35;;
48743;SDS011;34538;48.836;9.174;2022-09-24T02:41:43;16.08;;;10.60;;
48743;SDS011;34538;48.836;9.174;2022-09-24T02:44:14;18.08;;;11.05;;
48743;SDS011;34538;48.836;9.174;2022-09-24T02:46:41;18.75;;;11.85;;
48743;SDS011;34538;48.836;9.174;2022-09-24T02:49:07;15.05;;;10.43;;
48743;SDS011;34538;48.836;9.174;2022-09-24T02:51:34;14.98;;;10.40;;
48743;SDS011;34538;48.836;9.174;2022-09-24T02:54:00;14.05;;;10.70;;
48743;SDS011;34538;48.836;9.174;2022-09-24T02:56:27;15.68;;;10.35;;
48743;SDS011;34538;48.836;9.174;2022-09-24T02:58:53;16.23;;;10.30;;
48743;SDS011;34538;48.836;9.174;2022-09-24T03:01:19;15.52;;;10.45;;
48743;SDS011;34538;48.836;9.174;2022-09-24T03:03:44;14.70;;;9.82;;
48743;SDS011;34538;48.836;9.174;2022-09-24T03:06:10;17.65;;;11.02;;
48743;SDS011;34538;48.836;9.174;2022-09-24T03:08:37;15.60;;;9.80;;
48743;SDS011;34538;48.836;9.174;2022-09-24T03:11:04;15.57;;;10.05;;
48743;SDS011;34538;48.836;9.174;2022-09-24T03:13:29;14.85;;;10.25;;
48743;SDS011;34538;48.836;9.174;2022-09-24T03:15:55;16.75;;;11.35;;
48743;SDS011;34538;48.836;9.174;2022-09-24T03:18:21;15.82;;;10.68;;
48743;SDS011;34538;48.836;9.174;2022-09-24T03:20:53;15.93;;;11.25;;
48743;SDS011;34538;48.836;9.174;2022-09-24T03:23:23;15.30;;;10.20;;
48743;SDS011;34538;48.836;9.174;2022-09-24T03:25:49;16.05;;;10.70;;
48743;SDS011;34538;48.836;9.174;2022-09-24T03:28:15;16.05;;;10.00;;
48743;SDS011;34538;48.836;9.174;2022-09-24T03:30:41;15.38;;;10.52;;
48743;SDS011;34538;48.836;9.174;2022-09-24T03:33:29;16.35;;;11.05;;
48743;SDS011;34538;48.836;9.174;2022-09-24T03:35:57;15.70;;;10.73;;
48743;SDS011;34538;48.836;9.174;2022-09-24T03:38:25;17.83;;;10.93;;
48743;SDS011;34538;48.836;9.174;2022-09-24T03:40:51;15.77;;;11.45;;
48743;SDS011;34538;48.836;9.174;2022-09-24T03:43:17;15.18;;;10.23;;
48743;SDS011;34538;48.836;9.174;2022-09-24T03:45:43;14.88;;;9.73;;
48743;SDS011;34538;48.836;9.174;2022-09-24T03:48:09;16.90;;;11.00;;
48743;SDS011;34538;48.836;9.174;2022-09-24T03:50:35;14.23;;;10.05;;
48743;SDS011;34538;48.836;9.174;2022-09-24T03:53:01;15.57;;;10.35;;
48743;SDS011;34538;48.836;9.174;2022-09-24T03:55:27;17.80;;;11.10;;
48743;SDS011;34538;48.836;9.174;2022-09-24T03:57:52;14.93;;;10.57;;
48743;SDS011;34538;48.836;9.174;2022-09-24T04:00:19;14.45;;;10.63;;
48743;SDS011;34538;48.836;9.174;2022-09-24T04:02:44;14.15;;;10.65;;
48743;SDS011;34538;48.836;9.174;2022-09-24T04:05:10;16.77;;;10.13;;
48743;SDS011;34538;48.836;9.174;2022-09-24T04:07:36;13.90;;;9.65;;
48743;SDS011;34538;48.836;9.174;2022-09-24T04:10:02;17.15;;;11.10;;
48743;SDS011;34538;48.836;9.174;2022-09-24T04:12:28;15.80;;;10.90;;
48743;SDS011;34538;48.836;9.174;2022-09-24T04:14:53;14.93;;;10.77;;
48743;SDS011;34538;48.836;9.174;2022-09-24T04:17:19;21.15;;;10.30;;
48743;SDS011;34538;48.836;9.174;2022-09-24T04:19:45;15.45;;;9.82;;
48743;SDS011;34538;48.836;9.174;2022-09-24T04:22:10;17.75;;;10.18;;
48743;SDS011;34538;48.836;9.174;2022-09-24T04:24:36;15.35;;;10.13;;
48743;SDS011;34538;48.836;9.174;2022-09-24T04:27:02;17.05;;;10.70;;
48743;SDS011;34538;48.836;9.174;2022-09-24T04:29:28;14.70;;;10.00;;
48743;SDS011;34538;48.836;9.174;2022-09-24T04:31:53;16.58;;;10.65;;
48743;SDS011;34538;48.836;9.174;2022-09-24T04:34:20;15.10;;;10.35;;
48743;SDS011;34538;48.836;9.174;2022-09-24T04:36:45;15.50;;;10.38;;
48743;SDS011;34538;48.836;9.174;2022-09-24T04:39:11;14.15;;;10.43;;
48743;SDS011;34538;48.836;9.174;2022-09-24T04:41:37;14.85;;;10.02;;
48743;SDS011;34538;48.836;9.174;2022-09-24T04:44:04;17.83;;;9.88;;
48743;SDS011;34538;48.836;9.174;2022-09-24T04:46:30;13.30;;;9.25;;
48743;SDS011;34538;48.836;9.174;2022-09-24T04:48:58;16.25;;;9.80;;
48743;SDS011;34538;48.836;9.174;2022-09-24T04:51:24;16.23;;;10.40;;
48743;SDS011;34538;48.836;9.174;2022-09-24T04:53:50;13.70;;;10.05;;
48743;SDS011;34538;48.836;9.174;2022-09-24T04:56:16;15.38;;;10.25;;
48743;SDS011;34538;48.836;9.174;2022-09-24T04:58:42;15.57;;;9.73;;
48743;SDS011;34538;48.836;9.174;2022-09-24T05:01:07;15.63;;;10.35;;
48743;SDS011;34538;48.836;9.174;2022-09-24T05:03:33;14.57;;;10.20;;
48743;SDS011;34538;48.836;9.174;2022-09-24T05:05:59;13.57;;;9.93;;
48743;SDS011;34538;48.836;9.174;2022-09-24T05:08:26;15.57;;;9.63;;
48743;SDS011;34538;48.836;9.174;2022-09-24T05:10:51;13.10;;;9.43;;
48743;SDS011;34538;48.836;9.174;2022-09-24T05:13:18;12.43;;;9.23;;
48743;SDS011;34538;48.836;9.174;2022-09-24T05:15:44;14.68;;;9.73;;
48743;SDS011;34538;48.836;9.174;2022-09-24T05:18:09;17.70;;;10.10;;
48743;SDS011;34538;48.836;9.174;2022-09-24T05:20:35;18.77;;;10.00;;
48743;SDS011;34538;48.836;9.174;2022-09-24T05:23:01;14.18;;;9.80;;
48743;SDS011;34538;48.836;9.174;2022-09-24T05:25:27;16.70;;;9.75;;
48743;SDS011;34538;48.836;9.174;2022-09-24T05:27:53;14.98;;;10.57;;
48743;SDS011;34538;48.836;9.174;2022-09-24T05:30:20;12.90;;;9.50;;
48743;SDS011;34538;48.836;9.174;2022-09-24T05:32:47;14.48;;;9.95;;
48743;SDS011;34538;48.836;9.174;2022-09-24T05:35:19;12.57;;;9.13;;
48743;SDS011;34538;48.836;9.174;2022-09-24T05:37:45;13.20;;;9.50;;
48743;SDS011;34538;48.836;9.174;2022-09-24T05:40:13;14.90;;;9.68;;
48743;SDS011;34538;48.836;9.174;2022-09-24T05:42:58;12.98;;;9.23;;
48743;SDS011;34538;48.836;9.174;2022-09-24T05:45:25;15.25;;;9.13;;
48743;SDS011;34538;48.836;9.174;2022-09-24T05:47:51;15.05;;;9.48;;
48743;SDS011;34538;48.836;9.174;2022-09-24T05:50:16;14.57;;;9.52;;
48743;SDS011;34538;48.836;9.174;2022-09-24T05:52:42;14.23;;;10.02;;
48743;SDS011;34538;48.836;9.174;2022-09-24T05:55:08;16.48;;;9.82;;
48743;SDS011;34538;48.836;9.174;2022-09-24T05:57:34;15.60;;;9.68;;
48743;SDS011;34538;48.836;9.174;2022-09-24T06:00:00;13.55;;;9.23;;
48743;SDS011;34538;48.836;9.174;2022-09-24T06:02:37;18.08;;;10.65;;
48743;SDS011;34538;48.836;9.174;2022-09-24T06:05:02;14.48;;;9.93;;
48743;SDS011;34538;48.836;9.174;2022-09-24T06:07:28;13.07;;;9.45;;
48743;SDS011;34538;48.836;9.174;2022-09-24T06:09:55;14.65;;;10.13;;
48743;SDS011;34538;48.836;9.174;2022-09-24T06:12:23;13.77;;;10.27;;
48743;SDS011;34538;48.836;9.174;2022-09-24T06:14:49;14.50;;;9.85;;
48743;SDS011;34538;48.836;9.174;2022-09-24T06:17:15;13.93;;;10.18;;
48743;SDS011;34538;48.836;9.174;2022-09-24T06:19:40;13.15;;;9.25;;
48743;SDS011;34538;48.836;9.174;2022-09-24T06:22:06;14.05;;;10.32;;
48743;SDS011;34538;48.836;9.174;2022-09-24T06:24:32;13.60;;;9.60;;
48743;SDS011;34538;48.836;9.174;2022-09-24T06:26:58;14.27;;;10.07;;
48743;SDS011;34538;48.836;9.174;2022-09-24T06:29:24;12.00;;;9.00;;
48743;SDS011;34538;48.836;9.174;2022-09-24T06:31:50;13.13;;;9.45;;
48743;SDS011;34538;48.836;9.174;2022-09-24T06:34:18;13.68;;;9.85;;
48743;SDS011;34538;48.836;9.174;2022-09-24T06:36:43;12.02;;;8.63;;
48743;SDS011;34538;48.836;9.174;2022-09-24T06:39:09;14.90;;;9.25;;
48743;SDS011;34538;48.836;9.174;2022-09-24T06:41:35;11.25;;;8.45;;
48743;SDS011;34538;48.836;9.174;2022-09-24T06:44:00;12.77;;;9.23;;
48743;SDS011;34538;48.836;9.174;2022-09-24T06:46:26;12.25;;;8.85;;
48743;SDS011;34538;48.836;9.174;2022-09-24T06:48:52;13.40;;;9.27;;
48743;SDS011;34538;48.836;9.174;2022-09-24T06:51:19;12.35;;;8.63;;
48743;SDS011;34538;48.836;9.174;2022-09-24T06:53:45;13.48;;;9.30;;
48743;SDS011;34538;48.836;9.174;2022-09-24T06:56:10;13.50;;;9.27;;
48743;SDS011;34538;48.836;9.174;2022-09-24T06:58:36;12.52;;;8.43;;
48743;SDS011;34538;48.836;9.174;2022-09-24T07:01:02;13.30;;;9.20;;
48743;SDS011;34538;48.836;9.174;2022-09-24T07:03:31;11.82;;;8.43;;
48743;SDS011;34538;48.836;9.174;2022-09-24T07:05:59;14.85;;;9.20;;
48743;SDS011;34538;48.836;9.174;2022-09-24T07:08:26;13.80;;;8.63;;
48743;SDS011;34538;48.836;9.174;2022-09-24T07:10:52;12.27;;;8.52;;
48743;SDS011;34538;48.836;9.174;2022-09-24T07:13:18;12.57;;;9.32;;
48743;SDS011;34538;48.836;9.174;2022-09-24T07:15:45;13.30;;;9.25;;
48743;SDS011;34538;48.836;9.174;2022-09-24T07:18:12;13.80;;;8.95;;
48743;SDS011;34538;48.836;9.174;2022-09-24T07:20:38;12.00;;;8.45;;
48743;SDS011;34538;48.836;9.174;2022-09-24T07:23:05;11.85;;;9.38;;
48743;SDS011;34538;48.836;9.174;2022-09-24T07:25:32;13.50;;;8.70;;
48743;SDS011;34538;48.836;9.174;2022-09-24T07:28:05;11.00;;;8.38;;
48743;SDS011;34538;48.836;9.174;2022-09-24T07:30:33;12.98;;;8.38;;
48743;SDS011;34538;48.836;9.174;2022-09-24T07:32:59;10.25;;;7.90;;
48743;SDS011;34538;48.836;9.174;2022-09-24T07:35:25;13.00;;;8.75;;
48743;SDS011;34538;48.836;9.174;2022-09-24T07:37:56;11.00;;;8.57;;
48743;SDS011;34538;48.836;9.174;2022-09-24T07:40:23;13.93;;;8.70;;
48743;SDS011;34538;48.836;9.174;2022-09-24T07:42:49;15.35;;;8.80;;
48743;SDS011;34538;48.836;9.174;2022-09-24T07:45:15;11.93;;;8.75;;
48743;SDS011;34538;48.836;9.174;2022-09-24T07:47:41;12.95;;;8.82;;
48743;SDS011;34538;48.836;9.174;2022-09-24T07:50:07;12.73;;;8.02;;
48743;SDS011;34538;48.836;9.174;2022-09-24T07:52:33;12.45;;;7.82;;
48743;SDS011;34538;48.836;9.174;2022-09-24T07:54:59;11.95;;;8.18;;
48743;SDS011;34538;48.836;9.174;2022-09-24T07:57:25;10.25;;;7.93;;
48743;SDS011;34538;48.836;9.174;2022-09-24T07:59:51;12.00;;;8.43;;
48743;SDS011;34538;48.836;9.174;2022-09-24T08:02:18;10.68;;;8.15;;
48743;SDS011;34538;48.836;9.174;2022-09-24T08:04:44;14.38;;;8.45;;
48743;SDS011;34538;48.836;9.174;2022-09-24T08:07:11;12.43;;;7.72;;
48743;SDS011;34538;48.836;9.174;2022-09-24T08:09:37;11.98;;;8.18;;
48743;SDS011;34538;48.836;9.174;2022-09-24T08:12:04;12.02;;;8.00;;
48743;SDS011;34538;48.836;9.174;2022-09-24T08:14:30;11.63;;;8.43;;
48743;SDS011;34538;48.836;9.174;2022-09-24T08:16:56;14.60;;;8.13;;
48743;SDS011;34538;48.836;9.174;2022-09-24T08:19:21;11.38;;;8.52;;
48743;SDS011;34538;48.836;9.174;2022-09-24T08:21:47;13.82;;;8.77;;
48743;SDS011;34538;48.836;9.174;2022-09-24T08:24:13;11.82;;;8.18;;
48743;SDS011;34538;48.836;9.174;2022-09-24T08:26:40;13.00;;;8.00;;
48743;SDS011;34538;48.836;9.174;2022-09-24T08:29:06;12.48;;;8.93;;
48743;SDS011;34538;48.836;9.174;2022-09-24T08:31:32;13.88;;;8.48;;
48743;SDS011;34538;48.836;9.174;2022-09-24T08:33:59;12.45;;;7.90;;
48743;SDS011;34538;48.836;9.174;2022-09-24T08:36:25;10.45;;;7.32;;
48743;SDS011;34538;48.836;9.174;2022-09-24T08:38:54;13.43;;;7.82;;
48743;SDS011;34538;48.836;9.174;2022-09-24T08:41:32;9.90;;;7.57;;
48743;SDS011;34538;48.836;9.174;2022-09-24T08:44:17;9.98;;;7.47;;
48743;SDS011;34538;48.836;9.174;2022-09-24T08:50:13;12.77;;;7.90;;
48743;SDS011;34538;48.836;9.174;2022-09-24T08:55:11;10.00;;;6.70;;
48743;SDS011;34538;48.836;9.174;2022-09-24T09:00:41;10.77;;;6.97;;
48743;SDS011;34538;48.836;9.174;2022-09-24T09:09:25;10.68;;;6.95;;
48743;SDS011;34538;48.836;9.174;2022-09-24T09:12:04;11.77;;;6.90;;
48743;SDS011;34538;48.836;9.174;2022-09-24T09:14:39;10.25;;;6.57;;
48743;SDS011;34538;48.836;9.174;2022-09-24T09:19:57;10.80;;;6.45;;
48743;SDS011;34538;48.836;9.174;2022-09-24T09:22:30;9.35;;;6.05;;
48743;SDS011;34538;48.836;9.174;2022-09-24T09:25:23;10.32;;;6.55;;
48743;SDS011;34538;48.836;9.174;2022-09-24T09:27:50;10.75;;;5.68;;
48743;SDS011;34538;48.836;9.174;2022-09-24T09:30:22;7.57;;;4.80;;
48743;SDS011;34538;48.836;9.174;2022-09-24T09:32:59;6.97;;;4.82;;
48743;SDS011;34538;48.836;9.174;2022-09-24T09:38:28;6.80;;;4.28;;
48743;SDS011;34538;48.836;9.174;2022-09-24T09:41:28;7.10;;;4.13;;
48743;SDS011;34538;48.836;9.174;2022-09-24T09:44:46;5.00;;;3.70;;
48743;SDS011;34538;48.836;9.174;2022-09-24T09:46:59;6.10;;;4.07;;
48743;SDS011;34538;48.836;9.174;2022-09-24T09:49:34;6.25;;;3.40;;
48743;SDS011;34538;48.836;9.174;2022-09-24T09:52:03;6.32;;;4.00;;
48743;SDS011;34538;48.836;9.174;2022-09-24T09:54:38;6.68;;;4.20;;
48743;SDS011;34538;48.836;9.174;2022-09-24T09:57:06;7.45;;;3.90;;
48743;SDS011;34538;48.836;9.174;2022-09-24T09:59:51;5.15;;;3.13;;
48743;SDS011;34538;48.836;9.174;2022-09-24T10:04:47;4.75;;;2.38;;
48743;SDS011;34538;48.836;9.174;2022-09-24T10:07:18;4.82;;;2.63;;
48743;SDS011;34538;48.836;9.174;2022-09-24T10:09:44;3.08;;;1.88;;
48743;SDS011;34538;48.836;9.174;2022-09-24T10:12:14;3.45;;;2.20;;
48743;SDS011;34538;48.836;9.174;2022-09-24T10:14:41;3.20;;;2.40;;
48743;SDS011;34538;48.836;9.174;2022-09-24T10:17:14;4.93;;;2.45;;
48743;SDS011;34538;48.836;9.174;2022-09-24T10:19:42;3.15;;;2.10;;
48743;SDS011;34538;48.836;9.174;2022-09-24T10:22:25;5.85;;;2.40;;
48743;SDS011;34538;48.836;9.174;2022-09-24T10:24:52;4.90;;;2.55;;
48743;SDS011;34538;48.836;9.174;2022-09-24T10:27:30;4.75;;;2.55;;
48743;SDS011;34538;48.836;9.174;2022-09-24T10:29:59;4.45;;;2.78;;
48743;SDS011;34538;48.836;9.174;2022-09-24T10:32:45;5.07;;;2.60;;
48743;SDS011;34538;48.836;9.174;2022-09-24T10:35:26;3.80;;;2.67;;
48743;SDS011;34538;48.836;9.174;2022-09-24T10:37:59;4.13;;;2.38;;
48743;SDS011;34538;48.836;9.174;2022-09-24T10:40:27;3.92;;;2.33;;
48743;SDS011;34538;48.836;9.174;2022-09-24T10:43:02;4.10;;;2.42;;
48743;SDS011;34538;48.836;9.174;2022-09-24T10:45:38;3.65;;;2.38;;
48743;SDS011;34538;48.836;9.174;2022-09-24T10:51:05;3.22;;;2.38;;
48743;SDS011;34538;48.836;9.174;2022-09-24T10:53:52;4.05;;;2.60;;
48743;SDS011;34538;48.836;9.174;2022-09-24T10:56:25;3.97;;;2.42;;
48743;SDS011;34538;48.836;9.174;2022-09-24T10:59:15;4.00;;;2.58;;
48743;SDS011;34538;48.836;9.174;2022-09-24T11:10:30;3.88;;;2.35;;
48743;SDS011;34538;48.836;9.174;2022-09-24T11:44:51;2.92;;;2.38;;
48743;SDS011;34538;48.836;9.174;2022-09-24T11:47:35;5.32;;;2.35;;
48743;SDS011;34538;48.836;9.174;2022-09-24T11:50:44;3.55;;;2.10;;
48743;SDS011;34538;48.836;9.174;2022-09-24T11:59:09;3.85;;;2.35;;
48743;SDS011;34538;48.836;9.174;2022-09-24T12:01:45;2.17;;;1.97;;
48743;SDS011;34538;48.836;9.174;2022-09-24T12:04:20;4.47;;;2.20;;
48743;SDS011;34538;48.836;9.174;2022-09-24T12:06:55;6.50;;;2.08;;
48743;SDS011;34538;48.836;9.174;2022-09-24T12:09:38;3.22;;;2.00;;
48743;SDS011;34538;48.836;9.174;2022-09-24T12:12:12;2.90;;;1.98;;
48743;SDS011;34538;48.836;9.174;2022-09-24T12:15:04;3.05;;;1.80;;
48743;SDS011;34538;48.836;9.174;2022-09-24T12:17:39;3.67;;;2.55;;
48743;SDS011;34538;48.836;9.174;2022-09-24T12:22:59;3.38;;;2.33;;
48743;SDS011;34538;48.836;9.174;2022-09-24T12:25:28;2.80;;;2.05;;
48743;SDS011;34538;48.836;9.174;2022-09-24T12:28:09;4.40;;;2.50;;
48743;SDS011;34538;48.836;9.174;2022-09-24T12:30:45;5.10;;;2.90;;
48743;SDS011;34538;48.836;9.174;2022-09-24T12:33:37;5.25;;;3.17;;
48743;SDS011;34538;48.836;9.174;2022-09-24T12:36:30;6.38;;;3.05;;
48743;SDS011;34538;48.836;9.174;2022-09-24T12:39:09;6.45;;;3.40;;
48743;SDS011;34538;48.836;9.174;2022-09-24T12:41:38;7.85;;;4.07;;
48743;SDS011;34538;48.836;9.174;2022-09-24T12:49:18;7.75;;;3.30;;
48743;SDS011;34538;48.836;9.174;2022-09-24T12:51:51;6.22;;;3.75;;
48743;SDS011;34538;48.836;9.174;2022-09-24T12:54:22;6.90;;;3.90;;
48743;SDS011;34538;48.836;9.174;2022-09-24T12:57:03;6.80;;;4.10;;
48743;SDS011;34538;48.836;9.174;2022-09-24T12:59:30;6.95;;;4.13;;
48743;SDS011;34538;48.836;9.174;2022-09-24T13:02:05;6.05;;;4.22;;
48743;SDS011;34538;48.836;9.174;2022-09-24T13:04:43;6.85;;;4.20;;
48743;SDS011;34538;48.836;9.174;2022-09-24T13:07:36;5.70;;;3.70;;
48743;SDS011;34538;48.836;9.174;2022-09-24T13:10:11;6.47;;;3.80;;
48743;SDS011;34538;48.836;9.174;2022-09-24T13:12:48;5.38;;;3.92;;
48743;SDS011;34538;48.836;9.174;2022-09-24T13:18:05;7.32;;;4.25;;
48743;SDS011;34538;48.836;9.174;2022-09-24T13:20:39;5.60;;;3.53;;
48743;SDS011;34538;48.836;9.174;2022-09-24T13:23:11;7.47;;;4.53;;
48743;SDS011;34538;48.836;9.174;2022-09-24T13:26:44;7.60;;;4.32;;
48743;SDS011;34538;48.836;9.174;2022-09-24T13:28:57;7.75;;;4.70;;
48743;SDS011;34538;48.836;9.174;2022-09-24T13:31:39;7.65;;;5.25;;
48743;SDS011;34538;48.836;9.174;2022-09-24T13:34:25;7.80;;;4.47;;
48743;SDS011;34538;48.836;9.174;2022-09-24T13:36:57;7.45;;;4.60;;
48743;SDS011;34538;48.836;9.174;2022-09-24T13:39:43;8.38;;;5.40;;
48743;SDS011;34538;48.836;9.174;2022-09-24T13:45:04;10.15;;;5.75;;
48743;SDS011;34538;48.836;9.174;2022-09-24T13:47:37;7.68;;;5.20;;
48743;SDS011;34538;48.836;9.174;2022-09-24T13:50:13;6.88;;;4.80;;
48743;SDS011;34538;48.836;9.174;2022-09-24T13:52:45;6.65;;;4.90;;
48743;SDS011;34538;48.836;9.174;2022-09-24T13:57:58;6.90;;;4.70;;
48743;SDS011;34538;48.836;9.174;2022-09-24T14:00:24;7.30;;;4.63;;
48743;SDS011;34538;48.836;9.174;2022-09-24T14:03:01;7.07;;;4.95;;
48743;SDS011;34538;48.836;9.174;2022-09-24T14:05:41;7.72;;;4.80;;
48743;SDS011;34538;48.836;9.174;2022-09-24T14:08:09;9.13;;;5.45;;
48743;SDS011;34538;48.836;9.174;2022-09-24T14:10:37;9.00;;;5.28;;
48743;SDS011;34538;48.836;9.174;2022-09-24T14:13:22;6.95;;;4.80;;
48743;SDS011;34538;48.836;9.174;2022-09-24T14:18:15;7.32;;;4.78;;
48743;SDS011;34538;48.836;9.174;2022-09-24T14:20:41;6.55;;;4.25;;
48743;SDS011;34538;48.836;9.174;2022-09-24T14:23:08;7.00;;;5.30;;
48743;SDS011;34538;48.836;9.174;2022-09-24T14:25:43;7.90;;;4.82;;
48743;SDS011;34538;48.836;9.174;2022-09-24T14:28:10;6.57;;;4.65;;
48743;SDS011;34538;48.836;9.174;2022-09-24T14:30:37;7.30;;;4.80;;
48743;SDS011;34538;48.836;9.174;2022-09-24T14:33:15;7.65;;;4.50;;
48743;SDS011;34538;48.836;9.174;2022-09-24T14:35:44;7.32;;;4.38;;
48743;SDS011;34538;48.836;9.174;2022-09-24T14:38:14;7.32;;;4.93;;
48743;SDS011;34538;48.836;9.174;2022-09-24T14:40:58;7.88;;;5.50;;
48743;SDS011;34538;48.836;9.174;2022-09-24T14:43:49;8.10;;;5.70;;
48743;SDS011;34538;48.836;9.174;2022-09-24T14:46:36;7.68;;;5.25;;
48743;SDS011;34538;48.836;9.174;2022-09-24T14:49:17;10.50;;;5.32;;
48743;SDS011;34538;48.836;9.174;2022-09-24T14:52:01;9.15;;;5.30;;
48743;SDS011;34538;48.836;9.174;2022-09-24T14:54:32;8.38;;;5.95;;
48743;SDS011;34538;48.836;9.174;2022-09-24T14:59:41;9.48;;;5.28;;
48743;SDS011;34538;48.836;9.174;2022-09-24T15:04:39;7.72;;;5.22;;
48743;SDS011;34538;48.836;9.174;2022-09-24T15:07:15;7.95;;;5.68;;
48743;SDS011;34538;48.836;9.174;2022-09-24T15:09:52;8.60;;;5.40;;
48743;SDS011;34538;48.836;9.174;2022-09-24T15:12:21;8.15;;;5.40;;
48743;SDS011;34538;48.836;9.174;2022-09-24T15:15:02;9.88;;;6.13;;
48743;SDS011;34538;48.836;9.174;2022-09-24T15:17:33;9.43;;;5.65;;
48743;SDS011;34538;48.836;9.174;2022-09-24T15:20:00;7.75;;;5.50;;
48743;SDS011;34538;48.836;9.174;2022-09-24T15:22:27;9.73;;;5.22;;
48743;SDS011;34538;48.836;9.174;2022-09-24T15:24:54;8.75;;;5.60;;
48743;SDS011;34538;48.836;9.174;2022-09-24T15:27:25;7.63;;;4.95;;
48743;SDS011;34538;48.836;9.174;2022-09-24T15:29:52;7.63;;;5.18;;
48743;SDS011;34538;48.836;9.174;2022-09-24T15:32:23;7.93;;;5.45;;
48743;SDS011;34538;48.836;9.174;2022-09-24T15:34:55;7.75;;;5.15;;
48743;SDS011;34538;48.836;9.174;2022-09-24T15:37:22;8.40;;;5.45;;
48743;SDS011;34538;48.836;9.174;2022-09-24T15:39:49;8.27;;;5.25;;
48743;SDS011;34538;48.836;9.174;2022-09-24T15:42:20;9.32;;;5.20;;
48743;SDS011;34538;48.836;9.174;2022-09-24T15:44:47;7.90;;;5.55;;
48743;SDS011;34538;48.836;9.174;2022-09-24T15:47:15;8.05;;;5.22;;
48743;SDS011;34538;48.836;9.174;2022-09-24T15:49:41;7.85;;;5.38;;
48743;SDS011;34538;48.836;9.174;2022-09-24T15:52:19;8.48;;;5.50;;
48743;SDS011;34538;48.836;9.174;2022-09-24T15:54:55;8.13;;;5.35;;
48743;SDS011;34538;48.836;9.174;2022-09-24T15:57:22;10.13;;;5.78;;
48743;SDS011;34538;48.836;9.174;2022-09-24T15:59:50;8.02;;;5.20;;
48743;SDS011;34538;48.836;9.174;2022-09-24T16:02:24;8.70;;;5.43;;
48743;SDS011;34538;48.836;9.174;2022-09-24T16:04:52;6.85;;;5.20;;
48743;SDS011;34538;48.836;9.174;2022-09-24T16:07:18;7.18;;;5.22;;
48743;SDS011;34538;48.836;9.174;2022-09-24T16:09:44;7.90;;;5.35;;
48743;SDS011;34538;48.836;9.174;2022-09-24T16:12:13;6.60;;;5.53;;
48743;SDS011;34538;48.836;9.174;2022-09-24T16:14:40;6.70;;;5.05;;
48743;SDS011;34538;48.836;9.174;2022-09-24T16:17:06;8.55;;;5.00;;
48743;SDS011;34538;48.836;9.174;2022-09-24T16:19:31;8.95;;;5.82;;
48743;SDS011;34538;48.836;9.174;2022-09-24T16:21:57;8.43;;;5.90;;
48743;SDS011;34538;48.836;9.174;2022-09-24T16:24:24;8.98;;;6.03;;
48743;SDS011;34538;48.836;9.174;2022-09-24T16:26:50;8.38;;;5.80;;
48743;SDS011;34538;48.836;9.174;2022-09-24T16:29:15;10.30;;;5.85;;
48743;SDS011;34538;48.836;9.174;2022-09-24T16:31:42;11.55;;;6.13;;
48743;SDS011;34538;48.836;9.174;2022-09-24T16:34:09;7.95;;;5.53;;
48743;SDS011;34538;48.836;9.174;2022-09-24T16:36:37;10.07;;;6.13;;
48743;SDS011;34538;48.836;9.174;2022-09-24T16:39:03;8.52;;;6.07;;
48743;SDS011;34538;48.836;9.174;2022-09-24T16:41:29;8.25;;;5.63;;
48743;SDS011;34538;48.836;9.174;2022-09-24T16:43:58;7.95;;;5.72;;
48743;SDS011;34538;48.836;9.174;2022-09-24T16:46:24;9.05;;;5.22;;
48743;SDS011;34538;48.836;9.174;2022-09-24T16:48:50;10.60;;;5.88;;